sensor_id;sensor_type;location;lat;lon;timestamp;pressure;altitude;pressure_sealevel;temperature;humidity
42945;BME280;28584;42.636;23.294;2023-07-30T00:00:01;163271.84;;;17.69;100.00
42945;BME280;28584;42.636;23.294;2023-07-30T00:02:27;163262.47;;;17.65;100.00
42945;BME280;28584;42.636;23.294;2023-07-30T00:04:53;163239.63;;;17.57;100.00
42945;BME280;28584;42.636;23.294;2023-07-30T00:07:18;163228.91;;;17.53;100.00
42945;BME280;28584;42.636;23.294;2023-07-30T00:09:43;163222.16;;;17.50;100.00
42945;BME280;28584;42.636;23.294;2023-07-30T00:12:09;163202.03;;;17.43;100.00
42945;BME280;28584;42.636;23.294;2023-07-30T00:14:35;163228.91;;;17.53;100.00
42945;BME280;28584;42.636;23.294;2023-07-30T00:17:00;163318.88;;;17.86;100.00
42945;BME280;28584;42.636;23.294;2023-07-30T00:19:26;163309.44;;;17.83;100.00
42945;BME280;28584;42.636;23.294;2023-07-30T00:21:51;163301.44;;;17.80;100.00
42945;BME280;28584;42.636;23.294;2023-07-30T00:24:17;163293.38;;;17.77;100.00
42945;BME280;28584;42.636;23.294;2023-07-30T00:26:42;163312.16;;;17.84;100.00
42945;BME280;28584;42.636;23.294;2023-07-30T00:29:08;163296.03;;;17.78;100.00
42945;BME280;28584;42.636;23.294;2023-07-30T00:31:33;163325.59;;;17.89;100.00
42945;BME280;28584;42.636;23.294;2023-07-30T00:33:58;163332.28;;;17.91;100.00
42945;BME280;28584;42.636;23.294;2023-07-30T00:36:24;163341.72;;;17.95;100.00
42945;BME280;28584;42.636;23.294;2023-07-30T00:38:49;163341.72;;;17.95;100.00
42945;BME280;28584;42.636;23.294;2023-07-30T00:41:15;163333.66;;;17.92;100.00
42945;BME280;28584;42.636;23.294;2023-07-30T00:43:40;163341.72;;;17.95;100.00
42945;BME280;28584;42.636;23.294;2023-07-30T00:46:06;163340.34;;;17.94;100.00
42945;BME280;28584;42.636;23.294;2023-07-30T00:48:31;163356.47;;;18.00;100.00
42945;BME280;28584;42.636;23.294;2023-07-30T00:50:57;163377.97;;;18.08;100.00
42945;BME280;28584;42.636;23.294;2023-07-30T00:53:26;163412.91;;;18.21;100.00
42945;BME280;28584;42.636;23.294;2023-07-30T00:55:52;163398.13;;;18.16;100.00
42945;BME280;28584;42.636;23.294;2023-07-30T00:58:18;163391.44;;;18.13;100.00
42945;BME280;28584;42.636;23.294;2023-07-30T01:00:44;163380.69;;;18.09;100.00
42945;BME280;28584;42.636;23.294;2023-07-30T01:03:10;163365.84;;;18.04;100.00
42945;BME280;28584;42.636;23.294;2023-07-30T01:05:36;163347.06;;;17.97;100.00
42945;BME280;28584;42.636;23.294;2023-07-30T01:08:01;163340.34;;;17.94;100.00
42945;BME280;28584;42.636;23.294;2023-07-30T01:10:29;163322.91;;;17.88;100.00
42945;BME280;28584;42.636;23.294;2023-07-30T01:12:56;163309.44;;;17.83;100.00
42945;BME280;28584;42.636;23.294;2023-07-30T01:15:21;163304.09;;;17.81;100.00
42945;BME280;28584;42.636;23.294;2023-07-30T01:17:47;163306.78;;;17.82;100.00
42945;BME280;28584;42.636;23.294;2023-07-30T01:20:12;163285.31;;;17.74;100.00
42945;BME280;28584;42.636;23.294;2023-07-30T01:22:38;163278.59;;;17.71;100.00
42945;BME280;28584;42.636;23.294;2023-07-30T01:25:03;163246.34;;;17.59;100.00
42945;BME280;28584;42.636;23.294;2023-07-30T01:27:32;163261.09;;;17.65;100.00
42945;BME280;28584;42.636;23.294;2023-07-30T01:30:08;163257.09;;;17.63;100.00
42945;BME280;28584;42.636;23.294;2023-07-30T01:32:37;163236.97;;;17.56;100.00
42945;BME280;28584;42.636;23.294;2023-07-30T01:35:04;163212.78;;;17.47;100.00
42945;BME280;28584;42.636;23.294;2023-07-30T01:37:32;163199.38;;;17.42;100.00
42945;BME280;28584;42.636;23.294;2023-07-30T01:39:59;163216.81;;;17.48;100.00
42945;BME280;28584;42.636;23.294;2023-07-30T01:42:29;163214.13;;;17.47;100.00
42945;BME280;28584;42.636;23.294;2023-07-30T01:44:55;163247.69;;;17.60;100.00
42945;BME280;28584;42.636;23.294;2023-07-30T01:47:20;163231.56;;;17.54;100.00
42945;BME280;28584;42.636;23.294;2023-07-30T01:49:46;163215.44;;;17.48;100.00
42945;BME280;28584;42.636;23.294;2023-07-30T01:52:11;163199.38;;;17.42;100.00
42945;BME280;28584;42.636;23.294;2023-07-30T01:54:37;163163.03;;;17.28;100.00
42945;BME280;28584;42.636;23.294;2023-07-30T01:57:02;163129.47;;;17.16;100.00
42945;BME280;28584;42.636;23.294;2023-07-30T01:59:28;163121.41;;;17.13;100.00
42945;BME280;28584;42.636;23.294;2023-07-30T02:01:53;163102.63;;;17.06;100.00
42945;BME280;28584;42.636;23.294;2023-07-30T02:04:18;163061.00;;;16.90;100.00
42945;BME280;28584;42.636;23.294;2023-07-30T02:06:44;163019.41;;;16.75;100.00
42945;BME280;28584;42.636;23.294;2023-07-30T02:09:09;163067.72;;;16.93;100.00
42945;BME280;28584;42.636;23.294;2023-07-30T02:11:35;163097.28;;;17.04;100.00
42945;BME280;28584;42.636;23.294;2023-07-30T02:14:00;163108.03;;;17.08;100.00
42945;BME280;28584;42.636;23.294;2023-07-30T02:16:25;163035.53;;;16.81;100.00
42945;BME280;28584;42.636;23.294;2023-07-30T02:18:51;162981.84;;;16.61;100.00
42945;BME280;28584;42.636;23.294;2023-07-30T02:21:16;162969.75;;;16.56;100.00
42945;BME280;28584;42.636;23.294;2023-07-30T02:23:42;162954.97;;;16.51;100.00
42945;BME280;28584;42.636;23.294;2023-07-30T02:26:07;162940.22;;;16.45;100.00
42945;BME280;28584;42.636;23.294;2023-07-30T02:28:32;162936.19;;;16.43;100.00
42945;BME280;28584;42.636;23.294;2023-07-30T02:30:58;162928.09;;;16.40;100.00
42945;BME280;28584;42.636;23.294;2023-07-30T02:33:23;162917.38;;;16.36;100.00
42945;BME280;28584;42.636;23.294;2023-07-30T02:35:49;162917.38;;;16.36;100.00
42945;BME280;28584;42.636;23.294;2023-07-30T02:38:14;162906.66;;;16.32;100.00
42945;BME280;28584;42.636;23.294;2023-07-30T02:40:40;162913.34;;;16.35;100.00
42945;BME280;28584;42.636;23.294;2023-07-30T02:43:05;162914.69;;;16.35;100.00
42945;BME280;28584;42.636;23.294;2023-07-30T02:45:30;162925.41;;;16.39;100.00
42945;BME280;28584;42.636;23.294;2023-07-30T02:47:56;162933.53;;;16.42;100.00
42945;BME280;28584;42.636;23.294;2023-07-30T02:50:21;162928.09;;;16.40;100.00
42945;BME280;28584;42.636;23.294;2023-07-30T02:52:47;162932.16;;;16.42;100.00
42945;BME280;28584;42.636;23.294;2023-07-30T02:55:12;162941.59;;;16.46;100.00
42945;BME280;28584;42.636;23.294;2023-07-30T02:57:37;162963.03;;;16.54;100.00
42945;BME280;28584;42.636;23.294;2023-07-30T03:00:03;163030.13;;;16.79;100.00
42945;BME280;28584;42.636;23.294;2023-07-30T03:02:29;163061.00;;;16.90;100.00
42945;BME280;28584;42.636;23.294;2023-07-30T03:04:55;163043.59;;;16.84;100.00
42945;BME280;28584;42.636;23.294;2023-07-30T03:07:20;163035.53;;;16.81;100.00
42945;BME280;28584;42.636;23.294;2023-07-30T03:09:46;163015.38;;;16.73;100.00
42945;BME280;28584;42.636;23.294;2023-07-30T03:12:11;163004.66;;;16.69;100.00
42945;BME280;28584;42.636;23.294;2023-07-30T03:14:37;162989.88;;;16.64;100.00
42945;BME280;28584;42.636;23.294;2023-07-30T03:17:02;162995.28;;;16.66;100.00
42945;BME280;28584;42.636;23.294;2023-07-30T03:19:30;163001.97;;;16.68;100.00
42945;BME280;28584;42.636;23.294;2023-07-30T03:21:55;163006.00;;;16.70;100.00
42945;BME280;28584;42.636;23.294;2023-07-30T03:24:20;163022.06;;;16.76;100.00
42945;BME280;28584;42.636;23.294;2023-07-30T03:26:46;163062.38;;;16.91;100.00
42945;BME280;28584;42.636;23.294;2023-07-30T03:29:11;163101.25;;;17.05;100.00
42945;BME280;28584;42.636;23.294;2023-07-30T03:31:37;163172.47;;;17.32;100.00
42945;BME280;28584;42.636;23.294;2023-07-30T03:34:02;163223.50;;;17.51;100.00
42945;BME280;28584;42.636;23.294;2023-07-30T03:36:27;163278.59;;;17.71;100.00
42945;BME280;28584;42.636;23.294;2023-07-30T03:38:53;163333.66;;;17.92;100.00
42945;BME280;28584;42.636;23.294;2023-07-30T03:41:18;163371.25;;;18.06;100.00
42945;BME280;28584;42.636;23.294;2023-07-30T03:43:44;163416.94;;;18.23;100.00
42945;BME280;28584;42.636;23.294;2023-07-30T03:46:09;163480.13;;;18.46;100.00
42945;BME280;28584;42.636;23.294;2023-07-30T03:48:34;163524.50;;;18.63;100.00
42945;BME280;28584;42.636;23.294;2023-07-30T03:51:00;163546.00;;;18.71;100.00
42945;BME280;28584;42.636;23.294;2023-07-30T03:53:25;163619.91;;;18.98;100.00
42945;BME280;28584;42.636;23.294;2023-07-30T03:55:51;163712.72;;;19.33;100.00
42945;BME280;28584;42.636;23.294;2023-07-30T03:58:16;163796.09;;;19.64;100.00
42945;BME280;28584;42.636;23.294;2023-07-30T04:00:42;163884.84;;;19.97;97.79
42945;BME280;28584;42.636;23.294;2023-07-30T04:03:07;163984.47;;;20.34;93.44
42945;BME280;28584;42.636;23.294;2023-07-30T04:05:33;164074.59;;;20.68;86.17
42945;BME280;28584;42.636;23.294;2023-07-30T04:07:58;164170.22;;;21.03;87.79
42945;BME280;28584;42.636;23.294;2023-07-30T04:10:24;164140.56;;;20.92;87.08
42945;BME280;28584;42.636;23.294;2023-07-30T04:12:49;164183.66;;;21.08;88.57
42945;BME280;28584;42.636;23.294;2023-07-30T04:15:15;164283.31;;;21.45;80.10
42945;BME280;28584;42.636;23.294;2023-07-30T04:17:41;164283.31;;;21.45;82.02
42945;BME280;28584;42.636;23.294;2023-07-30T04:20:07;164366.84;;;21.77;78.13
42945;BME280;28584;42.636;23.294;2023-07-30T04:22:35;164474.63;;;22.17;74.57
42945;BME280;28584;42.636;23.294;2023-07-30T04:25:00;164581.06;;;22.56;72.40
42945;BME280;28584;42.636;23.294;2023-07-30T04:27:26;164663.31;;;22.87;70.04
42945;BME280;28584;42.636;23.294;2023-07-30T04:29:51;164734.72;;;23.13;66.70
42945;BME280;28584;42.636;23.294;2023-07-30T04:32:16;164834.56;;;23.50;62.54
42945;BME280;28584;42.636;23.294;2023-07-30T04:34:42;164934.28;;;23.87;60.89
42945;BME280;28584;42.636;23.294;2023-07-30T04:37:07;165017.97;;;24.19;59.41
42945;BME280;28584;42.636;23.294;2023-07-30T04:39:33;165070.56;;;24.38;58.75
42945;BME280;28584;42.636;23.294;2023-07-30T04:41:58;165143.47;;;24.65;57.49
42945;BME280;28584;42.636;23.294;2023-07-30T04:44:24;164976.16;;;24.03;59.40
42945;BME280;28584;42.636;23.294;2023-07-30T04:46:49;164765.78;;;23.25;66.00
42945;BME280;28584;42.636;23.294;2023-07-30T04:49:15;164887.13;;;23.70;66.83
42945;BME280;28584;42.636;23.294;2023-07-30T04:51:40;164985.63;;;24.07;63.52
42945;BME280;28584;42.636;23.294;2023-07-30T04:54:06;164850.69;;;23.56;63.93
42945;BME280;28584;42.636;23.294;2023-07-30T04:56:31;164911.38;;;23.79;65.69
42945;BME280;28584;42.636;23.294;2023-07-30T04:58:57;164989.66;;;24.08;63.89
42945;BME280;28584;42.636;23.294;2023-07-30T05:01:24;165057.09;;;24.33;64.57
42945;BME280;28584;42.636;23.294;2023-07-30T05:03:49;165162.38;;;24.72;63.43
42945;BME280;28584;42.636;23.294;2023-07-30T05:06:15;165263.63;;;25.10;60.21
42945;BME280;28584;42.636;23.294;2023-07-30T05:08:40;165271.66;;;25.13;60.07
42945;BME280;28584;42.636;23.294;2023-07-30T05:11:05;165317.63;;;25.30;58.86
42945;BME280;28584;42.636;23.294;2023-07-30T05:13:31;165258.19;;;25.08;59.29
42945;BME280;28584;42.636;23.294;2023-07-30T05:15:56;165210.94;;;24.90;60.02
42945;BME280;28584;42.636;23.294;2023-07-30T05:18:22;165088.13;;;24.45;61.67
42945;BME280;28584;42.636;23.294;2023-07-30T05:20:47;165132.66;;;24.61;62.62
42945;BME280;28584;42.636;23.294;2023-07-30T05:23:13;165223.09;;;24.95;60.32
42945;BME280;28584;42.636;23.294;2023-07-30T05:25:38;165193.41;;;24.84;60.47
42945;BME280;28584;42.636;23.294;2023-07-30T05:28:03;165194.78;;;24.84;59.82
42945;BME280;28584;42.636;23.294;2023-07-30T05:30:29;165283.81;;;25.17;58.76
42945;BME280;28584;42.636;23.294;2023-07-30T05:32:54;165383.78;;;25.54;56.81
42945;BME280;28584;42.636;23.294;2023-07-30T05:35:20;165324.41;;;25.32;57.41
42945;BME280;28584;42.636;23.294;2023-07-30T05:37:45;165192.03;;;24.83;59.22
42945;BME280;28584;42.636;23.294;2023-07-30T05:40:11;164999.09;;;24.12;63.45
42945;BME280;28584;42.636;23.294;2023-07-30T05:42:36;165476.91;;;25.89;58.23
42945;BME280;28584;42.636;23.294;2023-07-30T05:45:02;165633.63;;;26.47;55.38
42945;BME280;28584;42.636;23.294;2023-07-30T05:47:27;165653.91;;;26.54;54.01
42945;BME280;28584;42.636;23.294;2023-07-30T05:49:53;165821.50;;;27.17;52.41
42945;BME280;28584;42.636;23.294;2023-07-30T05:52:18;165518.81;;;26.04;54.09
42945;BME280;28584;42.636;23.294;2023-07-30T05:54:43;165697.16;;;26.71;52.69
42945;BME280;28584;42.636;23.294;2023-07-30T05:57:09;165883.69;;;27.40;50.56
42945;BME280;28584;42.636;23.294;2023-07-30T05:59:34;166002.69;;;27.84;49.55
42945;BME280;28584;42.636;23.294;2023-07-30T06:12:07;165660.66;;;26.57;49.75
42945;BME280;28584;42.636;23.294;2023-07-30T06:14:32;165564.75;;;26.21;50.79
42945;BME280;28584;42.636;23.294;2023-07-30T06:16:58;165731.00;;;26.83;50.64
42945;BME280;28584;42.636;23.294;2023-07-30T06:19:23;165589.06;;;26.30;50.76
42945;BME280;28584;42.636;23.294;2023-07-30T06:21:48;165555.31;;;26.18;51.33
42945;BME280;28584;42.636;23.294;2023-07-30T06:24:14;165671.50;;;26.61;51.26
42945;BME280;28584;42.636;23.294;2023-07-30T06:26:39;165467.50;;;25.85;52.02
42945;BME280;28584;42.636;23.294;2023-07-30T06:29:05;165708.00;;;26.75;50.53
42945;BME280;28584;42.636;23.294;2023-07-30T06:31:30;165876.94;;;27.37;48.52
42945;BME280;28584;42.636;23.294;2023-07-30T06:33:56;165745.84;;;26.89;49.74
42945;BME280;28584;42.636;23.294;2023-07-30T06:36:21;165921.53;;;27.54;47.82
42945;BME280;28584;42.636;23.294;2023-07-30T06:38:47;165986.41;;;27.78;48.38
42945;BME280;28584;42.636;23.294;2023-07-30T06:41:13;165993.22;;;27.80;47.55
42945;BME280;28584;42.636;23.294;2023-07-30T06:43:39;165867.50;;;27.34;47.73
42945;BME280;28584;42.636;23.294;2023-07-30T06:46:05;166108.16;;;28.23;46.85
42945;BME280;28584;42.636;23.294;2023-07-30T06:48:30;166404.50;;;29.33;44.28
42945;BME280;28584;42.636;23.294;2023-07-30T06:50:56;166621.09;;;30.13;42.87
42945;BME280;28584;42.636;23.294;2023-07-30T06:53:22;166665.81;;;30.29;41.92
42945;BME280;28584;42.636;23.294;2023-07-30T06:55:47;166785.00;;;30.73;40.96
42945;BME280;28584;42.636;23.294;2023-07-30T06:58:12;166871.66;;;31.05;40.57
42945;BME280;28584;42.636;23.294;2023-07-30T07:00:39;166959.78;;;31.38;40.17
42945;BME280;28584;42.636;23.294;2023-07-30T07:03:04;166304.31;;;28.95;43.84
42945;BME280;28584;42.636;23.294;2023-07-30T07:05:30;166300.25;;;28.94;44.33
42945;BME280;28584;42.636;23.294;2023-07-30T07:07:55;166432.91;;;29.43;43.45
42945;BME280;28584;42.636;23.294;2023-07-30T07:10:21;166622.41;;;30.13;42.54
42945;BME280;28584;42.636;23.294;2023-07-30T07:12:46;166571.00;;;29.94;42.33
42945;BME280;28584;42.636;23.294;2023-07-30T07:15:12;166197.47;;;28.56;44.53
42945;BME280;28584;42.636;23.294;2023-07-30T07:17:38;166135.19;;;28.33;45.57
42945;BME280;28584;42.636;23.294;2023-07-30T07:20:05;165891.81;;;27.43;47.17
42945;BME280;28584;42.636;23.294;2023-07-30T07:22:32;166187.97;;;28.52;45.11
42945;BME280;28584;42.636;23.294;2023-07-30T07:24:57;166496.53;;;29.67;43.35
42945;BME280;28584;42.636;23.294;2023-07-30T07:27:23;166640.09;;;30.20;42.38
42945;BME280;28584;42.636;23.294;2023-07-30T07:29:52;166324.69;;;29.03;43.88
42945;BME280;28584;42.636;23.294;2023-07-30T07:32:18;166307.03;;;28.96;44.69
42945;BME280;28584;42.636;23.294;2023-07-30T07:34:50;166384.19;;;29.25;43.65
42945;BME280;28584;42.636;23.294;2023-07-30T07:37:16;166514.16;;;29.73;42.03
42945;BME280;28584;42.636;23.294;2023-07-30T07:39:44;166294.84;;;28.92;45.38
42945;BME280;28584;42.636;23.294;2023-07-30T07:42:09;166435.59;;;29.44;43.39
42945;BME280;28584;42.636;23.294;2023-07-30T07:44:35;166782.28;;;30.72;41.98
42945;BME280;28584;42.636;23.294;2023-07-30T07:47:01;166771.38;;;30.68;40.97
42945;BME280;28584;42.636;23.294;2023-07-30T07:49:27;166736.16;;;30.55;41.45
42945;BME280;28584;42.636;23.294;2023-07-30T07:51:52;166200.16;;;28.57;44.28
42945;BME280;28584;42.636;23.294;2023-07-30T07:54:17;166297.56;;;28.93;43.56
42945;BME280;28584;42.636;23.294;2023-07-30T07:56:43;166378.75;;;29.23;43.03
42945;BME280;28584;42.636;23.294;2023-07-30T07:59:08;166483.03;;;29.62;41.90
42945;BME280;28584;42.636;23.294;2023-07-30T08:01:34;166459.97;;;29.53;42.35
42945;BME280;28584;42.636;23.294;2023-07-30T08:03:59;166571.00;;;29.94;41.37
42945;BME280;28584;42.636;23.294;2023-07-30T08:06:25;166376.06;;;29.22;42.45
42945;BME280;28584;42.636;23.294;2023-07-30T08:08:50;166388.25;;;29.27;42.30
42945;BME280;28584;42.636;23.294;2023-07-30T08:11:15;166496.53;;;29.67;41.58
42945;BME280;28584;42.636;23.294;2023-07-30T08:13:41;166571.00;;;29.94;41.35
42945;BME280;28584;42.636;23.294;2023-07-30T08:16:07;167066.81;;;31.78;38.10
42945;BME280;28584;42.636;23.294;2023-07-30T08:18:32;167323.06;;;32.72;36.50
42945;BME280;28584;42.636;23.294;2023-07-30T08:20:58;167403.09;;;33.02;35.29
42945;BME280;28584;42.636;23.294;2023-07-30T08:23:23;167652.69;;;33.94;34.72
42945;BME280;28584;42.636;23.294;2023-07-30T08:25:49;167515.66;;;33.43;34.64
42945;BME280;28584;42.636;23.294;2023-07-30T08:28:15;167213.22;;;32.32;34.90
42945;BME280;28584;42.636;23.294;2023-07-30T08:30:40;166866.22;;;31.03;36.97
42945;BME280;28584;42.636;23.294;2023-07-30T08:33:06;166999.06;;;31.53;36.53
42945;BME280;28584;42.636;23.294;2023-07-30T08:35:31;167008.53;;;31.56;37.04
42945;BME280;28584;42.636;23.294;2023-07-30T08:37:57;166839.16;;;30.93;37.16
42945;BME280;28584;42.636;23.294;2023-07-30T08:40:22;166798.53;;;30.78;37.23
42945;BME280;28584;42.636;23.294;2023-07-30T08:42:51;166906.91;;;31.18;36.97
42945;BME280;28584;42.636;23.294;2023-07-30T08:45:17;167365.13;;;32.88;34.37
42945;BME280;28584;42.636;23.294;2023-07-30T08:47:42;167772.16;;;34.38;32.25
42945;BME280;28584;42.636;23.294;2023-07-30T08:50:08;167337.97;;;32.78;34.17
42945;BME280;28584;42.636;23.294;2023-07-30T08:52:35;166967.91;;;31.41;35.64
42945;BME280;28584;42.636;23.294;2023-07-30T08:55:02;167461.38;;;33.23;33.47
42945;BME280;28584;42.636;23.294;2023-07-30T08:57:33;167751.72;;;34.31;31.17
42945;BME280;28584;42.636;23.294;2023-07-30T09:00:04;167955.41;;;35.06;29.63
42945;BME280;28584;42.636;23.294;2023-07-30T09:02:34;167347.44;;;32.81;32.46
42945;BME280;28584;42.636;23.294;2023-07-30T09:05:03;167935.03;;;34.98;30.53
42945;BME280;28584;42.636;23.294;2023-07-30T09:07:29;167706.97;;;34.14;31.76
42945;BME280;28584;42.636;23.294;2023-07-30T09:09:54;167575.31;;;33.65;32.32
42945;BME280;28584;42.636;23.294;2023-07-30T09:12:26;167620.13;;;33.82;31.22
42945;BME280;28584;42.636;23.294;2023-07-30T09:14:51;167620.13;;;33.82;32.37
42945;BME280;28584;42.636;23.294;2023-07-30T09:17:18;166768.69;;;30.67;34.64
42945;BME280;28584;42.636;23.294;2023-07-30T09:19:43;167131.91;;;32.02;33.55
42945;BME280;28584;42.636;23.294;2023-07-30T09:22:09;167043.75;;;31.69;33.34
42945;BME280;28584;42.636;23.294;2023-07-30T09:24:35;166978.75;;;31.45;33.07
42945;BME280;28584;42.636;23.294;2023-07-30T09:27:02;166760.56;;;30.64;33.65
42945;BME280;28584;42.636;23.294;2023-07-30T09:29:28;167054.59;;;31.73;32.69
42945;BME280;28584;42.636;23.294;2023-07-30T09:31:54;167001.75;;;31.54;32.87
42945;BME280;28584;42.636;23.294;2023-07-30T09:34:21;167411.19;;;33.05;31.02
42945;BME280;28584;42.636;23.294;2023-07-30T09:36:49;167890.19;;;34.82;30.14
42945;BME280;28584;42.636;23.294;2023-07-30T09:39:25;167990.69;;;35.19;28.88
42945;BME280;28584;42.636;23.294;2023-07-30T09:41:53;168233.81;;;36.08;27.94
42945;BME280;28584;42.636;23.294;2023-07-30T09:44:24;167791.16;;;34.45;29.03
42945;BME280;28584;42.636;23.294;2023-07-30T09:46:50;167156.25;;;32.11;31.73
42945;BME280;28584;42.636;23.294;2023-07-30T09:49:16;167671.69;;;34.01;29.91
42945;BME280;28584;42.636;23.294;2023-07-30T09:51:41;167011.22;;;31.57;33.00
42945;BME280;28584;42.636;23.294;2023-07-30T09:54:11;166874.38;;;31.06;34.04
42945;BME280;28584;42.636;23.294;2023-07-30T09:56:38;166889.25;;;31.12;33.59
42945;BME280;28584;42.636;23.294;2023-07-30T09:59:05;166755.19;;;30.62;34.26
42945;BME280;28584;42.636;23.294;2023-07-30T10:01:31;166977.38;;;31.45;33.59
42945;BME280;28584;42.636;23.294;2023-07-30T10:03:58;166755.19;;;30.62;35.22
42945;BME280;28584;42.636;23.294;2023-07-30T10:06:29;166659.03;;;30.27;34.90
42945;BME280;28584;42.636;23.294;2023-07-30T10:08:56;167202.34;;;32.28;33.33
42945;BME280;28584;42.636;23.294;2023-07-30T10:11:24;167655.41;;;33.95;30.90
42945;BME280;28584;42.636;23.294;2023-07-30T10:13:51;167802.00;;;34.49;29.84
42945;BME280;28584;42.636;23.294;2023-07-30T10:16:17;168051.84;;;35.41;28.69
42945;BME280;28584;42.636;23.294;2023-07-30T10:18:43;168183.56;;;35.90;28.47
42945;BME280;28584;42.636;23.294;2023-07-30T10:21:10;168002.88;;;35.23;29.14
42945;BME280;28584;42.636;23.294;2023-07-30T10:23:45;168212.09;;;36.00;28.87
42945;BME280;28584;42.636;23.294;2023-07-30T10:26:11;168589.88;;;37.40;27.17
42945;BME280;28584;42.636;23.294;2023-07-30T10:28:37;168549.13;;;37.25;26.54
42945;BME280;28584;42.636;23.294;2023-07-30T10:31:08;167886.13;;;34.80;30.12
42945;BME280;28584;42.636;23.294;2023-07-30T10:36:10;167751.72;;;34.31;30.45
42945;BME280;28584;42.636;23.294;2023-07-30T10:38:36;167654.06;;;33.95;30.24
42945;BME280;28584;42.636;23.294;2023-07-30T10:41:06;167252.53;;;32.46;32.14
42945;BME280;28584;42.636;23.294;2023-07-30T10:43:39;167213.22;;;32.32;32.79
42945;BME280;28584;42.636;23.294;2023-07-30T10:46:04;167367.84;;;32.89;31.75
42945;BME280;28584;42.636;23.294;2023-07-30T10:50:59;167370.53;;;32.90;32.04
42945;BME280;28584;42.636;23.294;2023-07-30T10:53:24;167407.16;;;33.03;31.59
42945;BME280;28584;42.636;23.294;2023-07-30T10:55:49;167580.75;;;33.67;30.45
42945;BME280;28584;42.636;23.294;2023-07-30T10:58:15;167400.34;;;33.01;31.59
42945;BME280;28584;42.636;23.294;2023-07-30T11:00:41;167693.44;;;34.09;30.34
42945;BME280;28584;42.636;23.294;2023-07-30T11:03:07;167140.03;;;32.05;32.15
42945;BME280;28584;42.636;23.294;2023-07-30T11:05:32;167450.53;;;33.19;31.47
42945;BME280;28584;42.636;23.294;2023-07-30T11:07:58;167742.25;;;34.27;30.30
42945;BME280;28584;42.636;23.294;2023-07-30T11:10:23;167967.63;;;35.10;29.24
42945;BME280;28584;42.636;23.294;2023-07-30T11:12:49;167807.44;;;34.51;29.17
42945;BME280;28584;42.636;23.294;2023-07-30T11:15:15;167708.34;;;34.15;29.87
42945;BME280;28584;42.636;23.294;2023-07-30T11:17:40;167260.69;;;32.49;32.12
42945;BME280;28584;42.636;23.294;2023-07-30T11:20:06;167522.44;;;33.46;30.61
42945;BME280;28584;42.636;23.294;2023-07-30T11:22:35;167715.13;;;34.17;29.78
42945;BME280;28584;42.636;23.294;2023-07-30T11:25:00;168024.69;;;35.31;28.70
42945;BME280;28584;42.636;23.294;2023-07-30T11:27:52;168313.97;;;36.38;27.66
42945;BME280;28584;42.636;23.294;2023-07-30T11:30:18;168237.88;;;36.10;27.63
42945;BME280;28584;42.636;23.294;2023-07-30T11:32:45;168130.56;;;35.70;27.94
42945;BME280;28584;42.636;23.294;2023-07-30T11:35:15;167973.03;;;35.12;28.72
42945;BME280;28584;42.636;23.294;2023-07-30T11:37:42;167685.28;;;34.06;29.66
42945;BME280;28584;42.636;23.294;2023-07-30T11:40:09;167839.97;;;34.63;29.14
42945;BME280;28584;42.636;23.294;2023-07-30T11:42:36;167899.78;;;34.85;29.25
42945;BME280;28584;42.636;23.294;2023-07-30T11:45:37;168070.84;;;35.48;29.13
42945;BME280;28584;42.636;23.294;2023-07-30T11:48:09;168194.41;;;35.94;28.65
42945;BME280;28584;42.636;23.294;2023-07-30T11:50:48;168407.78;;;36.73;26.63
42945;BME280;28584;42.636;23.294;2023-07-30T11:53:14;168195.78;;;35.94;27.42
42945;BME280;28584;42.636;23.294;2023-07-30T11:55:41;168051.84;;;35.41;27.83
42945;BME280;28584;42.636;23.294;2023-07-30T11:58:07;167901.09;;;34.86;28.51
42945;BME280;28584;42.636;23.294;2023-07-30T12:00:36;167808.75;;;34.52;29.07
42945;BME280;28584;42.636;23.294;2023-07-30T12:03:02;167553.63;;;33.57;29.71
42945;BME280;28584;42.636;23.294;2023-07-30T12:05:32;167584.84;;;33.69;30.21
42945;BME280;28584;42.636;23.294;2023-07-30T12:07:59;167416.63;;;33.07;30.82
42945;BME280;28584;42.636;23.294;2023-07-30T12:10:28;167201.03;;;32.27;31.84
42945;BME280;28584;42.636;23.294;2023-07-30T12:12:53;167211.84;;;32.31;32.76
42945;BME280;28584;42.636;23.294;2023-07-30T12:15:19;167083.06;;;31.84;34.46
42945;BME280;28584;42.636;23.294;2023-07-30T12:17:44;167075.00;;;31.81;33.84
42945;BME280;28584;42.636;23.294;2023-07-30T12:20:11;167118.31;;;31.97;33.56
42945;BME280;28584;42.636;23.294;2023-07-30T12:22:37;167230.88;;;32.38;33.53
42945;BME280;28584;42.636;23.294;2023-07-30T12:25:04;167339.28;;;32.78;33.33
42945;BME280;28584;42.636;23.294;2023-07-30T12:27:30;167350.13;;;32.82;33.00
42945;BME280;28584;42.636;23.294;2023-07-30T12:29:55;167367.84;;;32.89;32.52
42945;BME280;28584;42.636;23.294;2023-07-30T12:32:21;167408.50;;;33.04;33.12
42945;BME280;28584;42.636;23.294;2023-07-30T12:34:46;167439.69;;;33.15;33.38
42945;BME280;28584;42.636;23.294;2023-07-30T12:37:11;167445.13;;;33.17;32.97
42945;BME280;28584;42.636;23.294;2023-07-30T12:39:37;167576.69;;;33.66;32.41
42945;BME280;28584;42.636;23.294;2023-07-30T12:42:03;167620.13;;;33.82;31.86
42945;BME280;28584;42.636;23.294;2023-07-30T12:44:28;167663.53;;;33.98;31.75
42945;BME280;28584;42.636;23.294;2023-07-30T12:46:53;167693.44;;;34.09;31.08